Time;durP1;ratioP1;P1;durP2;ratioP2;P2;SDS_P1;SDS_P2;PMS_P1;PMS_P2;Temp;Humidity;BMP_temperature;BMP_pressure;BME280_temperature;BME280_humidity;BME280_pressure;Samples;Min_cycle;Max_cycle;Signal;HPM_P1;HPM_P2
2022/11/15 00:00:46;;;;;;;6.67;4.95;;;;;;;;;;1700496;84;21102;-62
2022/11/15 00:03:30;;;;;;;9.13;4.85;;;;;;;;;;1677032;85;21063;-62
2022/11/15 00:06:15;;;;;;;7.70;5.33;;;;;;;;;;1659881;85;21023;-63
2022/11/15 00:09:00;;;;;;;10.08;5.53;;;;;;;;;;1670623;85;21059;-62
2022/11/15 00:11:45;;;;;;;8.00;5.58;;;;;;;;;;1657329;85;21055;-61
2022/11/15 00:14:30;;;;;;;8.75;5.05;;;;;;;;;;1659703;85;21111;-61
2022/11/15 00:17:14;;;;;;;9.70;4.83;;;;;;;;;;1670947;85;21050;-61
2022/11/15 00:19:59;;;;;;;8.38;4.87;;;;;;;;;;1656125;85;21063;-62
2022/11/15 00:22:46;;;;;;;8.63;4.83;;;;;;;;;;1670896;85;21565;-62
2022/11/15 00:25:31;;;;;;;9.70;5.47;;;;;;;;;;1657474;84;21091;-61
2022/11/15 00:28:16;;;;;;;7.67;5.00;;;;;;;;;;1671256;85;21050;-61
2022/11/15 00:31:02;;;;;;;10.93;5.40;;;;;;;;;;1672477;84;21041;-62
2022/11/15 00:33:48;;;;;;;9.95;5.28;;;;;;;;;;1675811;84;21018;-62
2022/11/15 00:36:34;;;;;;;7.28;4.75;;;;;;;;;;1680753;84;21068;-62
2022/11/15 00:39:19;;;;;;;8.30;5.30;;;;;;;;;;1669711;85;21072;-61
2022/11/15 00:42:04;;;;;;;7.28;4.40;;;;;;;;;;1663157;85;20997;-62
2022/11/15 00:44:49;;;;;;;7.87;4.53;;;;;;;;;;1654457;85;21096;-62
2022/11/15 00:47:34;;;;;;;7.80;4.95;;;;;;;;;;1674702;84;21057;-62
2022/11/15 00:50:18;;;;;;;8.00;4.72;;;;;;;;;;1673720;85;21098;-62
2022/11/15 00:53:03;;;;;;;7.83;4.80;;;;;;;;;;1658583;85;21592;-62
2022/11/15 00:55:48;;;;;;;7.50;4.80;;;;;;;;;;1679620;85;21065;-62
2022/11/15 00:58:33;;;;;;;8.50;4.75;;;;;;;;;;1665439;85;21525;-62
2022/11/15 01:01:18;;;;;;;6.62;4.47;;;;;;;;;;1671315;84;21134;-62
2022/11/15 01:04:02;;;;;;;6.78;4.62;;;;;;;;;;1672535;84;21043;-62
2022/11/15 01:06:47;;;;;;;5.40;4.03;;;;;;;;;;1663769;85;21038;-63
2022/11/15 01:09:32;;;;;;;7.10;4.50;;;;;;;;;;1666509;85;21000;-63
2022/11/15 01:12:17;;;;;;;5.67;4.20;;;;;;;;;;1680539;84;21038;-62
2022/11/15 01:15:03;;;;;;;6.75;4.10;;;;;;;;;;1682389;85;21085;-62
2022/11/15 01:17:48;;;;;;;6.28;4.05;;;;;;;;;;1681658;85;21048;-63
2022/11/15 01:20:33;;;;;;;5.03;3.95;;;;;;;;;;1679430;85;21026;-62
2022/11/15 01:23:19;;;;;;;8.00;3.92;;;;;;;;;;1674225;85;21021;-62
2022/11/15 01:26:04;;;;;;;7.75;4.30;;;;;;;;;;1670035;85;21046;-62
2022/11/15 01:28:49;;;;;;;6.78;3.92;;;;;;;;;;1662422;85;21062;-62
2022/11/15 01:31:33;;;;;;;7.30;4.30;;;;;;;;;;1676856;85;21121;-63
2022/11/15 01:34:18;;;;;;;7.40;3.65;;;;;;;;;;1658783;85;21142;-62
2022/11/15 01:37:05;;;;;;;6.30;4.35;;;;;;;;;;1674294;85;21041;-62
2022/11/15 01:39:49;;;;;;;7.95;3.42;;;;;;;;;;1682773;85;21097;-61
2022/11/15 01:42:34;;;;;;;5.45;3.72;;;;;;;;;;1664322;85;21066;-62
2022/11/15 01:45:19;;;;;;;6.08;3.80;;;;;;;;;;1674565;85;21546;-62
2022/11/15 01:48:07;;;;;;;7.00;4.10;;;;;;;;;;1662076;85;21049;-62
2022/11/15 01:50:51;;;;;;;7.00;3.80;;;;;;;;;;1684327;84;21049;-62
2022/11/15 01:53:36;;;;;;;7.47;4.30;;;;;;;;;;1657920;85;21601;-62
2022/11/15 01:56:25;;;;;;;8.08;4.45;;;;;;;;;;1670429;85;21053;-61
2022/11/15 01:59:10;;;;;;;7.00;4.25;;;;;;;;;;1668842;85;21083;-62
2022/11/15 02:04:52;;;;;;;5.65;3.95;;;;;;;;;;1694196;81;76964;-63
2022/11/15 02:07:37;;;;;;;6.33;4.28;;;;;;;;;;1689244;84;21015;-64
2022/11/15 02:10:23;;;;;;;6.53;4.37;;;;;;;;;;1685157;84;20989;-63
2022/11/15 02:13:07;;;;;;;7.15;4.15;;;;;;;;;;1694046;83;21012;-63
2022/11/15 02:16:01;;;;;;;6.37;3.95;;;;;;;;;;1696709;83;20999;-63
2022/11/15 02:18:47;;;;;;;5.20;3.60;;;;;;;;;;1663457;84;21003;-64
2022/11/15 02:21:38;;;;;;;6.22;4.47;;;;;;;;;;1667420;84;21000;-64
2022/11/15 02:24:28;;;;;;;6.65;4.28;;;;;;;;;;1683680;84;21003;-63
2022/11/15 02:27:30;;;;;;;8.25;4.87;;;;;;;;;;1673167;85;21026;-62
2022/11/15 02:30:22;;;;;;;6.20;4.47;;;;;;;;;;1669333;85;21511;-63
2022/11/15 02:33:25;;;;;;;7.70;4.70;;;;;;;;;;1680234;84;21404;-63
2022/11/15 02:36:14;;;;;;;7.80;4.65;;;;;;;;;;1694298;85;21020;-64
2022/11/15 02:39:01;;;;;;;7.72;4.97;;;;;;;;;;1686407;84;21047;-63
2022/11/15 02:41:49;;;;;;;8.98;5.33;;;;;;;;;;1638341;87;21084;-63
2022/11/15 02:44:35;;;;;;;7.25;4.35;;;;;;;;;;1626224;88;21030;-63
2022/11/15 02:47:19;;;;;;;8.85;4.97;;;;;;;;;;1643977;86;21076;-64
2022/11/15 02:50:07;;;;;;;6.90;4.67;;;;;;;;;;1644395;87;21524;-63
2022/11/15 02:52:54;;;;;;;9.43;4.80;;;;;;;;;;1651297;86;20995;-63
2022/11/15 02:55:39;;;;;;;7.47;4.28;;;;;;;;;;1639925;86;21003;-63
2022/11/15 02:58:25;;;;;;;7.47;4.53;;;;;;;;;;1655494;86;21037;-63
2022/11/15 03:01:14;;;;;;;7.37;4.70;;;;;;;;;;1647060;87;21029;-62
2022/11/15 03:04:18;;;;;;;7.35;4.83;;;;;;;;;;1660895;85;21112;-63
2022/11/15 03:07:23;;;;;;;12.63;5.62;;;;;;;;;;1662688;86;21534;-64
2022/11/15 03:10:12;;;;;;;8.73;5.33;;;;;;;;;;1659887;86;21001;-62
2022/11/15 03:12:58;;;;;;;11.30;5.87;;;;;;;;;;1661425;85;21005;-63
2022/11/15 03:15:44;;;;;;;8.60;5.05;;;;;;;;;;1660782;86;21021;-63
2022/11/15 03:18:30;;;;;;;7.30;4.95;;;;;;;;;;1645088;86;21035;-63
2022/11/15 03:21:15;;;;;;;8.03;4.65;;;;;;;;;;1648092;86;21012;-63
2022/11/15 03:24:00;;;;;;;8.50;4.90;;;;;;;;;;1661102;86;21037;-63
2022/11/15 03:26:44;;;;;;;8.48;4.78;;;;;;;;;;1661762;86;20993;-63
2022/11/15 03:29:43;;;;;;;6.80;5.03;;;;;;;;;;1662003;86;21020;-64
2022/11/15 03:32:28;;;;;;;8.30;4.75;;;;;;;;;;1651565;87;21589;-63
2022/11/15 03:35:13;;;;;;;8.70;5.30;;;;;;;;;;1626824;87;21198;-64
2022/11/15 03:38:02;;;;;;;9.53;5.60;;;;;;;;;;1694100;85;21032;-63
2022/11/15 03:41:01;;;;;;;7.97;5.03;;;;;;;;;;1682673;85;21566;-63
2022/11/15 03:43:48;;;;;;;11.97;4.97;;;;;;;;;;1660401;86;21089;-63
2022/11/15 03:46:33;;;;;;;11.05;5.70;;;;;;;;;;1651714;86;21031;-64
2022/11/15 03:49:20;;;;;;;10.35;5.20;;;;;;;;;;1656014;86;21023;-63
2022/11/15 03:52:04;;;;;;;8.78;5.42;;;;;;;;;;1641945;87;20987;-63
2022/11/15 03:54:55;;;;;;;9.13;5.65;;;;;;;;;;1651247;87;21021;-62
2022/11/15 03:57:40;;;;;;;8.68;5.33;;;;;;;;;;1664120;86;21017;-64
2022/11/15 04:00:24;;;;;;;;;;;;;;;;;;1640673;86;21005;-63
2022/11/15 04:03:08;;;;;;;14.28;7.50;;;;;;;;;;1654621;86;20416;-63
2022/11/15 04:05:52;;;;;;;12.82;6.92;;;;;;;;;;1653652;86;21030;-64
2022/11/15 04:08:38;;;;;;;12.68;6.65;;;;;;;;;;1711236;84;21051;-63
2022/11/15 04:11:23;;;;;;;11.45;6.33;;;;;;;;;;1697947;84;20988;-63
2022/11/15 04:14:07;;;;;;;14.00;7.03;;;;;;;;;;1711596;84;21033;-63
2022/11/15 04:16:52;;;;;;;9.95;6.03;;;;;;;;;;1711152;84;21061;-62
2022/11/15 04:25:44;;;;;;;9.90;6.12;;;;;;;;;;1656243;86;20993;-63
2022/11/15 04:28:29;;;;;;;8.70;5.55;;;;;;;;;;1655730;86;21528;-63
2022/11/15 04:31:13;;;;;;;10.72;6.05;;;;;;;;;;1690791;84;21012;-62
2022/11/15 04:33:58;;;;;;;12.85;6.70;;;;;;;;;;1700925;84;21043;-63
2022/11/15 04:39:45;;;;;;;13.60;6.70;;;;;;;;;;1713515;83;21059;-63
2022/11/15 04:42:29;;;;;;;11.57;6.22;;;;;;;;;;1711834;84;20988;-63
2022/11/15 04:45:13;;;;;;;12.05;6.58;;;;;;;;;;1710633;84;21488;-63
2022/11/15 04:47:59;;;;;;;14.60;6.85;;;;;;;;;;1710636;84;20963;-63
2022/11/15 04:50:43;;;;;;;12.33;6.83;;;;;;;;;;1701223;84;21049;-63
2022/11/15 04:53:28;;;;;;;12.55;6.55;;;;;;;;;;1709805;84;21009;-63
2022/11/15 04:56:12;;;;;;;14.03;7.05;;;;;;;;;;1697534;84;21040;-63
2022/11/15 04:58:56;;;;;;;12.07;5.70;;;;;;;;;;1711571;84;21559;-62
2022/11/15 05:01:40;;;;;;;14.63;7.17;;;;;;;;;;1709094;84;21052;-64
2022/11/15 05:04:25;;;;;;;13.85;7.22;;;;;;;;;;1700566;84;21615;-64
2022/11/15 05:07:09;;;;;;;15.70;6.97;;;;;;;;;;1687431;84;20988;-63
2022/11/15 05:09:54;;;;;;;13.78;6.67;;;;;;;;;;1711575;84;21013;-63
2022/11/15 05:12:38;;;;;;;15.00;7.28;;;;;;;;;;1700328;84;21020;-64
2022/11/15 05:15:23;;;;;;;15.68;7.65;;;;;;;;;;1687928;84;21057;-65
2022/11/15 05:18:46;;;;;;;17.23;7.05;;;;;;;;;;1824266;77;24326;-63
2022/11/15 05:21:32;;;;;;;14.30;7.35;;;;;;;;;;1797281;78;21471;-63
2022/11/15 05:24:18;;;;;;;16.62;7.22;;;;;;;;;;1792615;80;21021;-63
2022/11/15 05:27:03;;;;;;;16.35;8.00;;;;;;;;;;1752308;81;21024;-63
2022/11/15 05:29:49;;;;;;;14.30;7.05;;;;;;;;;;1755432;80;21100;-63
2022/11/15 05:32:33;;;;;;;16.05;7.58;;;;;;;;;;1741540;81;21028;-63
2022/11/15 05:35:20;;;;;;;15.93;7.42;;;;;;;;;;1733486;81;21040;-63
2022/11/15 05:38:05;;;;;;;14.38;7.28;;;;;;;;;;1753870;81;21037;-64
2022/11/15 05:40:50;;;;;;;16.07;7.33;;;;;;;;;;1748968;81;21017;-63
2022/11/15 05:43:35;;;;;;;15.65;7.30;;;;;;;;;;1760211;81;21085;-64
2022/11/15 05:46:19;;;;;;;13.60;6.70;;;;;;;;;;1737098;81;21040;-64
2022/11/15 05:49:05;;;;;;;14.98;7.35;;;;;;;;;;1739021;82;21052;-63
2022/11/15 05:51:49;;;;;;;15.75;7.60;;;;;;;;;;1760161;81;21048;-64
2022/11/15 05:54:34;;;;;;;16.25;7.28;;;;;;;;;;1728664;83;21018;-64
2022/11/15 05:57:18;;;;;;;13.83;6.65;;;;;;;;;;1727691;82;21124;-64
2022/11/15 06:00:04;;;;;;;15.58;8.33;;;;;;;;;;1755951;81;21052;-62
2022/11/15 06:02:48;;;;;;;16.00;7.15;;;;;;;;;;1756890;81;21084;-63
2022/11/15 06:05:33;;;;;;;15.58;7.70;;;;;;;;;;1768168;80;21081;-64
2022/11/15 06:08:18;;;;;;;17.20;8.15;;;;;;;;;;1736179;82;21029;-64
2022/11/15 06:11:05;;;;;;;14.78;6.80;;;;;;;;;;1769476;80;21508;-63
2022/11/15 06:13:51;;;;;;;15.32;6.65;;;;;;;;;;1728783;81;21564;-64
2022/11/15 06:16:36;;;;;;;12.60;6.62;;;;;;;;;;1732567;81;21060;-65
2022/11/15 06:19:23;;;;;;;16.40;6.35;;;;;;;;;;1798169;79;20950;-63
2022/11/15 06:22:09;;;;;;;9.88;5.92;;;;;;;;;;1792612;79;21036;-63
2022/11/15 06:24:54;;;;;;;14.20;6.08;;;;;;;;;;1787021;80;20985;-63
2022/11/15 06:27:39;;;;;;;10.55;5.53;;;;;;;;;;1789780;79;21079;-62
2022/11/15 06:30:24;;;;;;;14.87;6.37;;;;;;;;;;1798531;79;21009;-63
2022/11/15 06:33:09;;;;;;;10.40;5.58;;;;;;;;;;1795175;79;21512;-63
2022/11/15 06:35:53;;;;;;;11.28;5.87;;;;;;;;;;1758112;80;21101;-63
2022/11/15 06:38:39;;;;;;;12.98;6.67;;;;;;;;;;1788648;79;21045;-64
2022/11/15 06:41:24;;;;;;;13.55;6.75;;;;;;;;;;1790283;79;21008;-63
2022/11/15 06:44:09;;;;;;;14.07;6.20;;;;;;;;;;1791707;79;21000;-64
2022/11/15 06:46:53;;;;;;;13.13;6.12;;;;;;;;;;1797636;79;21071;-64
2022/11/15 06:49:38;;;;;;;11.68;5.83;;;;;;;;;;1799365;79;21033;-63
2022/11/15 06:52:22;;;;;;;12.35;6.08;;;;;;;;;;1786911;79;21036;-63
2022/11/15 06:55:08;;;;;;;11.08;5.70;;;;;;;;;;1799714;79;21024;-63
2022/11/15 06:57:53;;;;;;;11.88;5.85;;;;;;;;;;1795186;79;21560;-63
2022/11/15 07:00:37;;;;;;;9.08;5.33;;;;;;;;;;1794599;79;21052;-63
2022/11/15 07:03:22;;;;;;;8.25;5.10;;;;;;;;;;1800687;79;21536;-63
2022/11/15 07:06:07;;;;;;;10.48;4.97;;;;;;;;;;1765661;80;21052;-63
2022/11/15 07:08:52;;;;;;;9.45;5.05;;;;;;;;;;1723037;82;21022;-63
2022/11/15 07:11:37;;;;;;;10.20;5.65;;;;;;;;;;1795326;79;21041;-63
2022/11/15 07:14:23;;;;;;;7.87;4.47;;;;;;;;;;1813046;79;21071;-65
2022/11/15 07:17:07;;;;;;;8.73;4.78;;;;;;;;;;1800754;79;21041;-63
2022/11/15 07:19:53;;;;;;;9.13;5.30;;;;;;;;;;1789887;79;21033;-63
2022/11/15 07:22:37;;;;;;;9.20;4.40;;;;;;;;;;1775360;79;21087;-63
2022/11/15 07:25:22;;;;;;;9.63;5.30;;;;;;;;;;1775836;79;21571;-63
2022/11/15 07:28:07;;;;;;;10.00;5.83;;;;;;;;;;1794654;79;21060;-63
2022/11/15 07:30:51;;;;;;;11.97;6.28;;;;;;;;;;1789051;78;21077;-63
2022/11/15 07:33:36;;;;;;;13.60;6.22;;;;;;;;;;1779486;78;21013;-63
2022/11/15 07:36:20;;;;;;;15.53;7.85;;;;;;;;;;1786302;79;21021;-63
2022/11/15 07:39:05;;;;;;;13.32;6.90;;;;;;;;;;1789854;78;21097;-62
2022/11/15 07:42:52;;;;;;;12.05;6.75;;;;;;;;;;1776798;79;21005;-63
2022/11/15 07:44:38;;;;;;;14.53;7.67;;;;;;;;;;1780985;79;21647;-63
2022/11/15 07:47:23;;;;;;;13.90;6.90;;;;;;;;;;1785326;79;21066;-63
2022/11/15 07:50:08;;;;;;;13.55;7.25;;;;;;;;;;1784781;79;21029;-63
2022/11/15 07:52:53;;;;;;;14.55;7.70;;;;;;;;;;1786077;79;21029;-62
2022/11/15 07:55:38;;;;;;;14.55;7.60;;;;;;;;;;1777831;79;21509;-63
2022/11/15 07:58:23;;;;;;;15.75;9.08;;;;;;;;;;1749929;79;21033;-64
2022/11/15 08:01:09;;;;;;;12.45;6.80;;;;;;;;;;1785576;79;21045;-65
2022/11/15 08:03:56;;;;;;;13.08;7.00;;;;;;;;;;1797007;79;21045;-63
2022/11/15 08:06:43;;;;;;;15.45;7.28;;;;;;;;;;1785851;79;21055;-64
2022/11/15 08:09:28;;;;;;;12.13;7.05;;;;;;;;;;1783830;79;21595;-62
2022/11/15 08:12:14;;;;;;;10.23;6.28;;;;;;;;;;1777687;79;21021;-63
2022/11/15 08:14:58;;;;;;;11.45;6.62;;;;;;;;;;1779252;79;21013;-64
2022/11/15 08:17:43;;;;;;;14.03;7.20;;;;;;;;;;1776278;80;21057;-64
2022/11/15 08:20:32;;;;;;;14.15;7.37;;;;;;;;;;1771717;81;21022;-63
2022/11/15 08:23:17;;;;;;;15.23;7.28;;;;;;;;;;1772174;81;21034;-63
2022/11/15 08:26:02;;;;;;;15.95;8.05;;;;;;;;;;1781875;79;21559;-63
2022/11/15 08:28:47;;;;;;;15.08;7.62;;;;;;;;;;1778165;81;21085;-63
2022/11/15 08:31:32;;;;;;;12.98;8.10;;;;;;;;;;1777570;78;21020;-63
2022/11/15 08:34:17;;;;;;;16.00;8.33;;;;;;;;;;1781764;78;21524;-63
2022/11/15 08:37:02;;;;;;;17.62;9.23;;;;;;;;;;1805643;79;21017;-63
2022/11/15 08:39:47;;;;;;;17.60;8.85;;;;;;;;;;1792092;79;21053;-63
2022/11/15 08:42:31;;;;;;;19.48;9.50;;;;;;;;;;1784876;78;21530;-64
2022/11/15 08:45:16;;;;;;;16.62;9.48;;;;;;;;;;1784434;79;20982;-63
2022/11/15 08:48:02;;;;;;;28.67;14.23;;;;;;;;;;1795607;79;21065;-63
2022/11/15 08:50:46;;;;;;;21.25;12.00;;;;;;;;;;1784981;78;21025;-62
2022/11/15 08:53:31;;;;;;;29.18;14.10;;;;;;;;;;1778249;78;21665;-64
2022/11/15 08:56:17;;;;;;;33.02;18.50;;;;;;;;;;1778805;79;21054;-63
2022/11/15 08:59:02;;;;;;;26.12;15.40;;;;;;;;;;1778957;79;21532;-63
2022/11/15 09:01:46;;;;;;;16.48;9.38;;;;;;;;;;1780284;79;21062;-63
2022/11/15 09:04:31;;;;;;;15.72;9.05;;;;;;;;;;1780693;79;21026;-63
2022/11/15 09:07:15;;;;;;;13.55;7.37;;;;;;;;;;1789754;79;21028;-62
2022/11/15 09:10:01;;;;;;;10.03;6.47;;;;;;;;;;1798025;79;21064;-63
2022/11/15 09:12:48;;;;;;;12.10;6.55;;;;;;;;;;1779143;79;21053;-63
2022/11/15 09:15:33;;;;;;;14.10;7.10;;;;;;;;;;1785453;79;21866;-64
2022/11/15 09:18:17;;;;;;;12.20;6.28;;;;;;;;;;1781964;80;21037;-64
2022/11/15 09:21:03;;;;;;;9.75;6.05;;;;;;;;;;1790552;79;21053;-64
2022/11/15 09:23:49;;;;;;;9.85;5.45;;;;;;;;;;1789705;79;21017;-64
2022/11/15 09:26:36;;;;;;;12.85;6.97;;;;;;;;;;1784256;79;21080;-64
2022/11/15 09:29:20;;;;;;;15.03;8.20;;;;;;;;;;1792325;79;21086;-63
2022/11/15 09:32:05;;;;;;;20.32;10.93;;;;;;;;;;1792019;80;21345;-62
2022/11/15 09:34:51;;;;;;;16.52;8.20;;;;;;;;;;1787665;79;22151;-64
2022/11/15 09:37:35;;;;;;;9.93;6.30;;;;;;;;;;1774563;79;21025;-65
2022/11/15 09:40:22;;;;;;;12.53;8.03;;;;;;;;;;1771271;81;21048;-65
2022/11/15 09:43:15;;;;;;;11.35;6.92;;;;;;;;;;1771670;79;21091;-63
2022/11/15 09:46:05;;;;;;;10.53;5.87;;;;;;;;;;1778140;78;21064;-64
2022/11/15 09:48:47;;;;;;;12.07;6.97;;;;;;;;;;1715156;79;21075;-64
2022/11/15 09:51:26;;;;;;;11.95;7.08;;;;;;;;;;1772606;79;21027;-64
2022/11/15 09:54:03;;;;;;;12.07;7.65;;;;;;;;;;1777560;79;21071;-65
2022/11/15 09:56:30;;;;;;;14.50;7.60;;;;;;;;;;1781801;79;21510;-63
2022/11/15 09:59:15;;;;;;;13.05;6.70;;;;;;;;;;1777639;78;21020;-63
2022/11/15 10:01:54;;;;;;;12.63;6.75;;;;;;;;;;1783746;79;21080;-64
2022/11/15 10:04:21;;;;;;;13.32;7.28;;;;;;;;;;1783363;79;21017;-64
2022/11/15 10:06:53;;;;;;;13.05;7.22;;;;;;;;;;1781783;79;20993;-64
2022/11/15 10:09:21;;;;;;;11.38;6.30;;;;;;;;;;1789885;79;21032;-64
2022/11/15 10:11:48;;;;;;;13.45;7.50;;;;;;;;;;1775136;79;21626;-64
2022/11/15 10:14:16;;;;;;;12.00;7.70;;;;;;;;;;1791982;78;21521;-64
2022/11/15 10:16:45;;;;;;;14.50;8.43;;;;;;;;;;1784924;78;21016;-65
2022/11/15 10:19:13;;;;;;;14.30;7.75;;;;;;;;;;1776600;78;21056;-64
2022/11/15 10:21:49;;;;;;;13.88;6.78;;;;;;;;;;1781256;79;21048;-62
2022/11/15 10:24:17;;;;;;;13.20;7.05;;;;;;;;;;1773795;79;21080;-65
2022/11/15 10:26:45;;;;;;;12.70;6.87;;;;;;;;;;1777330;79;21009;-64
2022/11/15 10:40:44;;;;;;;15.90;8.75;;;;;;;;;;1827001;77;22752;-62
2022/11/15 10:43:13;;;;;;;13.62;7.55;;;;;;;;;;1797990;78;21526;-63
2022/11/15 10:45:39;;;;;;;14.13;8.00;;;;;;;;;;1805292;78;21061;-63
2022/11/15 10:48:14;;;;;;;16.27;8.60;;;;;;;;;;1794739;78;21029;-63
2022/11/15 10:50:40;;;;;;;15.30;8.33;;;;;;;;;;1797166;78;21000;-64
2022/11/15 10:53:18;;;;;;;16.85;8.83;;;;;;;;;;1806637;78;21036;-62
2022/11/15 10:55:46;;;;;;;24.35;13.58;;;;;;;;;;1807040;78;21161;-62
2022/11/15 10:58:23;;;;;;;16.27;9.40;;;;;;;;;;1796997;78;21040;-62
2022/11/15 11:00:50;;;;;;;12.98;7.50;;;;;;;;;;1805981;78;22183;-63
2022/11/15 11:03:26;;;;;;;16.32;8.73;;;;;;;;;;1778602;78;20923;-63
2022/11/15 11:06:06;;;;;;;14.93;8.63;;;;;;;;;;1810501;78;21530;-63
2022/11/15 11:08:33;;;;;;;15.78;9.15;;;;;;;;;;1797183;78;21008;-62
2022/11/15 11:11:01;;;;;;;15.05;8.53;;;;;;;;;;1804625;78;21586;-62
2022/11/15 11:13:28;;;;;;;16.75;8.30;;;;;;;;;;1812552;78;21004;-61
2022/11/15 11:15:56;;;;;;;13.40;7.42;;;;;;;;;;1794759;78;21044;-62
2022/11/15 11:18:34;;;;;;;15.80;8.13;;;;;;;;;;1802426;78;21476;-62
2022/11/15 11:21:03;;;;;;;17.35;9.08;;;;;;;;;;1805514;78;21008;-63
2022/11/15 11:23:54;;;;;;;15.60;8.05;;;;;;;;;;1804158;78;21013;-61
2022/11/15 11:26:32;;;;;;;13.50;7.55;;;;;;;;;;1810991;78;21460;-61
2022/11/15 11:29:12;;;;;;;16.45;9.03;;;;;;;;;;1793311;78;21527;-62
2022/11/15 11:31:43;;;;;;;14.45;7.85;;;;;;;;;;1794279;78;21511;-61
2022/11/15 11:34:23;;;;;;;16.00;8.38;;;;;;;;;;1797272;78;21322;-61
2022/11/15 11:36:58;;;;;;;16.48;8.53;;;;;;;;;;1809616;78;21032;-62
2022/11/15 11:39:32;;;;;;;16.77;8.50;;;;;;;;;;1792672;78;21009;-63
2022/11/15 11:42:04;;;;;;;17.77;9.38;;;;;;;;;;1784834;79;20998;-63
2022/11/15 11:44:38;;;;;;;15.58;8.85;;;;;;;;;;1784553;79;21544;-63
2022/11/15 11:47:10;;;;;;;16.07;8.40;;;;;;;;;;1787385;79;21037;-63
2022/11/15 11:49:41;;;;;;;16.25;9.03;;;;;;;;;;1787735;79;21025;-63
2022/11/15 11:52:10;;;;;;;18.92;8.80;;;;;;;;;;1777904;79;21049;-64
2022/11/15 11:54:43;;;;;;;15.00;8.40;;;;;;;;;;1787532;79;21596;-62
2022/11/15 11:57:17;;;;;;;15.90;7.60;;;;;;;;;;1791347;79;20957;-64
2022/11/15 11:59:46;;;;;;;14.43;8.73;;;;;;;;;;1784294;79;21017;-64
2022/11/15 12:02:14;;;;;;;13.30;7.58;;;;;;;;;;1789023;79;21045;-63
2022/11/15 12:04:42;;;;;;;12.40;7.80;;;;;;;;;;1787686;79;20990;-60
2022/11/15 12:07:10;;;;;;;14.35;8.03;;;;;;;;;;1782426;79;21036;-61
2022/11/15 12:09:38;;;;;;;14.68;8.15;;;;;;;;;;1780358;78;20990;-63
2022/11/15 12:12:06;;;;;;;14.25;8.30;;;;;;;;;;1778591;79;20989;-61
2022/11/15 12:14:34;;;;;;;16.65;9.33;;;;;;;;;;1787305;79;21097;-61
2022/11/15 12:17:01;;;;;;;14.60;9.15;;;;;;;;;;1790524;78;21027;-61
2022/11/15 12:19:28;;;;;;;12.00;7.60;;;;;;;;;;1780702;79;21543;-62
2022/11/15 12:22:02;;;;;;;21.45;10.65;;;;;;;;;;1788324;78;21060;-62
2022/11/15 12:24:30;;;;;;;15.98;9.45;;;;;;;;;;1784732;79;21009;-61
2022/11/15 12:26:58;;;;;;;17.20;9.58;;;;;;;;;;1787026;79;21044;-61
2022/11/15 12:29:26;;;;;;;16.82;9.00;;;;;;;;;;1804138;78;21064;-60
2022/11/15 12:31:56;;;;;;;17.32;10.40;;;;;;;;;;1797617;79;21017;-61
2022/11/15 12:34:24;;;;;;;17.05;9.33;;;;;;;;;;1796731;79;21011;-61
2022/11/15 12:36:51;;;;;;;17.70;9.83;;;;;;;;;;1778688;79;21030;-62
2022/11/15 12:39:18;;;;;;;21.30;9.75;;;;;;;;;;1794060;79;21049;-62
2022/11/15 12:41:46;;;;;;;17.98;9.38;;;;;;;;;;1798452;79;21009;-62
2022/11/15 12:44:14;;;;;;;21.50;11.25;;;;;;;;;;1791275;79;21032;-63
2022/11/15 12:46:42;;;;;;;26.75;13.95;;;;;;;;;;1768971;79;21024;-63
2022/11/15 12:49:30;;;;;;;19.02;10.68;;;;;;;;;;1788027;79;21508;-62
2022/11/15 12:51:58;;;;;;;21.90;11.80;;;;;;;;;;1778093;79;20993;-61
2022/11/15 12:54:30;;;;;;;26.52;13.03;;;;;;;;;;1788791;79;20994;-62
2022/11/15 12:57:07;;;;;;;22.13;11.73;;;;;;;;;;1787673;79;21013;-62
2022/11/15 12:59:53;;;;;;;23.15;11.50;;;;;;;;;;1789575;79;21017;-62
2022/11/15 13:02:21;;;;;;;23.25;11.33;;;;;;;;;;1782803;79;21066;-63
2022/11/15 13:04:47;;;;;;;69.58;37.50;;;;;;;;;;1782468;79;21010;-63
2022/11/15 13:07:28;;;;;;;38.67;20.97;;;;;;;;;;1785298;79;21009;-63
2022/11/15 13:09:54;;;;;;;29.55;17.65;;;;;;;;;;1753183;79;21002;-63
2022/11/15 13:12:29;;;;;;;21.27;12.78;;;;;;;;;;1782030;79;21045;-64
2022/11/15 13:14:59;;;;;;;27.75;12.65;;;;;;;;;;1790110;79;20982;-63
2022/11/15 13:17:27;;;;;;;21.05;11.55;;;;;;;;;;1778637;79;21001;-63
2022/11/15 13:19:55;;;;;;;20.08;10.85;;;;;;;;;;1781931;79;21222;-63
2022/11/15 13:25:07;;;;;;;19.02;10.60;;;;;;;;;;1787335;79;21005;-62
2022/11/15 13:27:34;;;;;;;22.22;12.05;;;;;;;;;;1784022;79;21063;-63
2022/11/15 13:30:00;;;;;;;17.35;9.60;;;;;;;;;;1790601;79;21135;-63
2022/11/15 13:32:27;;;;;;;19.50;10.00;;;;;;;;;;1799005;79;21037;-63
2022/11/15 13:34:53;;;;;;;20.15;10.80;;;;;;;;;;1788622;78;21046;-63
2022/11/15 13:37:24;;;;;;;18.17;10.32;;;;;;;;;;1783717;79;21064;-63
2022/11/15 13:39:50;;;;;;;14.87;8.70;;;;;;;;;;1784358;79;21021;-63
2022/11/15 13:42:18;;;;;;;15.13;9.40;;;;;;;;;;1775736;79;21028;-63
2022/11/15 13:44:55;;;;;;;20.30;10.48;;;;;;;;;;1784207;79;21476;-62
2022/11/15 13:47:21;;;;;;;23.30;12.20;;;;;;;;;;1795741;79;20990;-62
2022/11/15 13:49:48;;;;;;;15.30;9.60;;;;;;;;;;1786438;79;21021;-62
2022/11/15 13:52:16;;;;;;;20.00;10.10;;;;;;;;;;1778386;79;21029;-63
2022/11/15 13:54:44;;;;;;;17.30;9.40;;;;;;;;;;1782777;79;21083;-63
2022/11/15 13:57:12;;;;;;;21.85;10.75;;;;;;;;;;1781107;79;21000;-63
2022/11/15 13:59:46;;;;;;;15.70;9.05;;;;;;;;;;1790884;79;21054;-63
2022/11/15 14:02:27;;;;;;;15.15;8.48;;;;;;;;;;1785559;79;21199;-63
2022/11/15 14:04:55;;;;;;;16.40;8.53;;;;;;;;;;1788557;79;21092;-63
2022/11/15 14:07:22;;;;;;;16.27;8.50;;;;;;;;;;1762244;79;21093;-63
2022/11/15 14:09:48;;;;;;;17.92;9.63;;;;;;;;;;1783111;79;21028;-63
2022/11/15 14:12:25;;;;;;;16.65;8.88;;;;;;;;;;1782831;79;22046;-64
2022/11/15 14:14:51;;;;;;;16.27;9.23;;;;;;;;;;1779588;79;21021;-62
2022/11/15 14:17:23;;;;;;;19.02;10.30;;;;;;;;;;1786578;79;21075;-62
2022/11/15 14:19:50;;;;;;;18.73;10.88;;;;;;;;;;1783685;79;21363;-65
2022/11/15 14:22:20;;;;;;;21.20;10.60;;;;;;;;;;1784543;79;20993;-62
2022/11/15 14:25:05;;;;;;;23.98;11.28;;;;;;;;;;1786048;79;21017;-62
2022/11/15 14:27:32;;;;;;;13.40;8.55;;;;;;;;;;1788339;79;21091;-63
2022/11/15 14:29:59;;;;;;;15.35;9.00;;;;;;;;;;1789693;79;21096;-63
2022/11/15 14:32:29;;;;;;;18.75;9.35;;;;;;;;;;1781976;79;21038;-63
2022/11/15 14:34:56;;;;;;;15.80;9.40;;;;;;;;;;1792795;79;20994;-63
2022/11/15 14:37:25;;;;;;;16.65;9.08;;;;;;;;;;1784809;79;21321;-62
2022/11/15 14:39:54;;;;;;;16.10;8.63;;;;;;;;;;1783114;79;20957;-62
2022/11/15 14:42:21;;;;;;;20.52;10.85;;;;;;;;;;1783710;79;21001;-62
2022/11/15 14:44:48;;;;;;;19.95;11.22;;;;;;;;;;1781974;79;21029;-62
2022/11/15 14:47:15;;;;;;;17.10;9.63;;;;;;;;;;1785124;79;21614;-63
2022/11/15 14:49:41;;;;;;;16.32;9.93;;;;;;;;;;1783986;79;21088;-62
2022/11/15 14:52:12;;;;;;;21.07;10.78;;;;;;;;;;1784729;79;21043;-62
2022/11/15 14:54:38;;;;;;;19.98;11.25;;;;;;;;;;1778484;79;20966;-62
2022/11/15 14:57:04;;;;;;;17.75;9.93;;;;;;;;;;1785921;79;21018;-62
2022/11/15 14:59:30;;;;;;;19.12;10.53;;;;;;;;;;1784087;79;21824;-63
2022/11/15 15:01:57;;;;;;;19.10;10.43;;;;;;;;;;1782830;79;22112;-62
2022/11/15 15:04:23;;;;;;;18.27;10.53;;;;;;;;;;1786155;79;21049;-63
2022/11/15 15:06:50;;;;;;;16.90;10.45;;;;;;;;;;1788084;79;21610;-62
2022/11/15 15:09:17;;;;;;;19.60;11.25;;;;;;;;;;1782539;79;20989;-62
2022/11/15 15:11:44;;;;;;;20.35;12.40;;;;;;;;;;1788155;79;20974;-62
2022/11/15 15:14:10;;;;;;;17.30;10.35;;;;;;;;;;1783669;79;21064;-63
2022/11/15 15:16:37;;;;;;;18.10;10.78;;;;;;;;;;1795567;79;21025;-63
2022/11/15 15:19:04;;;;;;;18.98;10.35;;;;;;;;;;1783524;79;21525;-63
2022/11/15 15:21:31;;;;;;;18.65;9.60;;;;;;;;;;1786213;79;21017;-62
2022/11/15 15:23:57;;;;;;;17.42;10.20;;;;;;;;;;1783800;79;21036;-63
2022/11/15 15:26:25;;;;;;;16.57;10.55;;;;;;;;;;1753573;81;21006;-63
2022/11/15 15:28:51;;;;;;;18.52;11.18;;;;;;;;;;1725244;82;21143;-63
2022/11/15 15:31:19;;;;;;;18.10;10.23;;;;;;;;;;1787425;79;21060;-63
2022/11/15 15:33:46;;;;;;;18.27;10.72;;;;;;;;;;1785419;78;21025;-64
2022/11/15 15:36:16;;;;;;;17.52;10.65;;;;;;;;;;1781881;79;20975;-62
2022/11/15 15:38:43;;;;;;;16.93;9.83;;;;;;;;;;1789768;79;21576;-63
2022/11/15 15:41:10;;;;;;;18.32;10.55;;;;;;;;;;1789492;79;21044;-62
2022/11/15 15:43:36;;;;;;;16.50;9.73;;;;;;;;;;1798062;79;21024;-63
2022/11/15 15:46:04;;;;;;;19.73;10.85;;;;;;;;;;1783066;79;21525;-63
2022/11/15 15:48:33;;;;;;;24.20;11.18;;;;;;;;;;1791347;79;20958;-63
2022/11/15 15:50:59;;;;;;;17.32;9.45;;;;;;;;;;1789930;79;21064;-63
2022/11/15 15:53:25;;;;;;;17.35;9.63;;;;;;;;;;1787289;79;21067;-62
2022/11/15 15:55:52;;;;;;;15.75;9.93;;;;;;;;;;1782833;79;20978;-61
2022/11/15 15:58:18;;;;;;;16.32;9.65;;;;;;;;;;1791448;79;21032;-61
2022/11/15 16:00:44;;;;;;;15.98;9.30;;;;;;;;;;1789560;79;21037;-62
2022/11/15 16:03:10;;;;;;;16.90;9.53;;;;;;;;;;1788195;79;21080;-63
2022/11/15 16:05:36;;;;;;;15.95;10.18;;;;;;;;;;1787750;79;21460;-63
2022/11/15 16:08:04;;;;;;;19.50;11.75;;;;;;;;;;1786416;79;21064;-63